createdAt,value
2022-09-16T00:01:19.898Z,100759.09
2022-09-16T00:03:21.631Z,100758.22
2022-09-16T00:05:23.198Z,100764.47
2022-09-16T00:07:24.627Z,100754.81
2022-09-16T00:09:26.078Z,100770.78
2022-09-16T00:11:28.127Z,100773.53
2022-09-16T00:13:29.655Z,100764.78
2022-09-16T00:15:31.421Z,100771.91
2022-09-16T00:17:32.921Z,100765.81
2022-09-16T00:19:34.389Z,100774.66
2022-09-16T00:21:35.891Z,100770.28
2022-09-16T00:23:37.996Z,100773.81
2022-09-16T00:25:39.552Z,100772.09
2022-09-16T00:27:41.034Z,100773.00
2022-09-16T00:29:42.571Z,100764.28
2022-09-16T00:31:44.057Z,100759.03
2022-09-16T00:33:45.542Z,100764.31
2022-09-16T00:35:47.656Z,100759.91
2022-09-16T00:37:49.116Z,100756.50
2022-09-16T00:39:50.949Z,100762.63
2022-09-16T00:41:52.422Z,100751.22
2022-09-16T00:44:05.019Z,100761.78
2022-09-16T00:46:06.532Z,100767.13
2022-09-16T00:48:14.545Z,100765.41
2022-09-16T00:50:21.400Z,100765.41
2022-09-16T00:52:23.098Z,100768.03
2022-09-16T00:54:25.937Z,100766.22
2022-09-16T00:56:30.053Z,100763.56
2022-09-16T00:59:02.151Z,100766.22
2022-09-16T01:01:05.794Z,100760.06
2022-09-16T01:03:07.331Z,100770.59
2022-09-16T01:05:14.148Z,100770.50
2022-09-16T01:07:16.897Z,100787.97
2022-09-16T01:09:20.963Z,100786.13
2022-09-16T01:11:22.470Z,100781.56
2022-09-16T01:13:24.018Z,100781.47
2022-09-16T01:15:41.194Z,100776.06
2022-09-16T01:17:58.033Z,100775.22
2022-09-16T01:20:27.396Z,100770.84
2022-09-16T01:22:35.244Z,100769.91
2022-09-16T01:24:54.653Z,100765.53
2022-09-16T01:27:14.562Z,100766.41
2022-09-16T01:29:37.780Z,100772.72
2022-09-16T01:32:01.755Z,100778.09
2022-09-16T01:34:22.146Z,100771.03
2022-09-16T01:36:29.316Z,100777.25
2022-09-16T01:39:00.617Z,100775.59
2022-09-16T01:41:21.676Z,100776.53
2022-09-16T01:43:57.442Z,100773.00
2022-09-16T01:46:41.039Z,100766.06
2022-09-16T01:49:11.564Z,100765.22
2022-09-16T01:51:21.948Z,100760.78
2022-09-16T01:53:32.584Z,100759.97
2022-09-16T01:55:42.596Z,100755.53
2022-09-16T01:58:15.354Z,100765.31
2022-09-16T02:00:17.432Z,100757.31
2022-09-16T02:02:27.294Z,100755.53
2022-09-16T02:04:56.327Z,100754.69
2022-09-16T02:07:02.062Z,100758.19
2022-09-16T02:09:18.846Z,100753.88
2022-09-16T02:11:21.537Z,100746.81
2022-09-16T02:13:47.835Z,100747.78
2022-09-16T02:15:52.725Z,100743.28
2022-09-16T02:18:02.959Z,100743.28
2022-09-16T02:20:17.308Z,100743.28
2022-09-16T02:22:26.012Z,100743.28
2022-09-16T02:24:29.054Z,100743.44
2022-09-16T02:26:36.950Z,100746.00
2022-09-16T02:28:42.145Z,100739.78
2022-09-16T02:30:48.091Z,100743.28
2022-09-16T02:33:00.724Z,100739.69
2022-09-16T02:35:03.954Z,100735.28
2022-09-16T02:37:11.913Z,100738.75
2022-09-16T02:39:19.454Z,100751.97
2022-09-16T02:41:20.925Z,100766.91
2022-09-16T02:43:23.444Z,100782.69
2022-09-16T02:45:38.914Z,100785.31
2022-09-16T02:48:03.419Z,100769.50
2022-09-16T02:50:17.003Z,100766.88
2022-09-16T02:52:44.718Z,100777.53
2022-09-16T02:55:05.228Z,100765.34
2022-09-16T02:57:07.073Z,100765.56
2022-09-16T02:59:11.926Z,100759.56
2022-09-16T03:01:13.863Z,100764.06
2022-09-16T03:03:15.571Z,100764.13
2022-09-16T03:05:17.032Z,100758.88
2022-09-16T03:07:18.711Z,100756.28
2022-09-16T03:09:24.028Z,100746.69
2022-09-16T03:11:48.723Z,100745.91
2022-09-16T03:14:14.559Z,100752.06
2022-09-16T03:16:36.378Z,100745.97
2022-09-16T03:18:40.573Z,100742.50
2022-09-16T03:20:56.091Z,100749.56
2022-09-16T03:23:00.221Z,100748.59
2022-09-16T03:25:17.003Z,100751.28
2022-09-16T03:27:31.855Z,100743.38
2022-09-16T03:29:43.724Z,100748.66
2022-09-16T03:31:50.040Z,100753.94
2022-09-16T03:34:02.662Z,100749.47
2022-09-16T03:36:08.943Z,100758.25
2022-09-16T03:38:12.342Z,100759.94
2022-09-16T03:40:17.459Z,100759.88
2022-09-16T03:42:20.195Z,100752.81
2022-09-16T03:44:21.647Z,100747.53
2022-09-16T03:46:23.577Z,100747.44
2022-09-16T03:48:25.263Z,100746.59
2022-09-16T03:50:26.674Z,100739.53
2022-09-16T03:52:28.127Z,100736.88
2022-09-16T03:54:29.592Z,100736.03
2022-09-16T03:56:31.055Z,100739.53
2022-09-16T03:58:32.524Z,100735.16
2022-09-16T04:00:34.039Z,100735.16
2022-09-16T04:02:35.765Z,100735.19
2022-09-16T04:04:37.280Z,100735.25
2022-09-16T04:06:38.837Z,100730.84
2022-09-16T04:08:40.261Z,100730.03
2022-09-16T04:10:41.691Z,100728.28
2022-09-16T04:12:43.172Z,100724.72
2022-09-16T04:14:44.677Z,100726.59
2022-09-16T04:16:46.111Z,100723.97
2022-09-16T04:18:48.389Z,100722.25
2022-09-16T04:20:49.819Z,100730.25
2022-09-16T04:22:51.263Z,100724.06
2022-09-16T04:24:52.712Z,100722.34
2022-09-16T04:26:54.205Z,100729.41
2022-09-16T04:28:55.710Z,100735.63
2022-09-16T04:31:02.581Z,100729.44
2022-09-16T04:33:04.113Z,100729.41
2022-09-16T04:35:06.070Z,100725.88
2022-09-16T04:37:07.609Z,100726.00
2022-09-16T04:39:09.035Z,100728.63
2022-09-16T04:41:19.687Z,100725.16
2022-09-16T04:43:21.136Z,100722.53
2022-09-16T04:45:22.613Z,100718.13
2022-09-16T04:47:24.037Z,100726.06
2022-09-16T04:49:25.506Z,100725.25
2022-09-16T04:51:28.336Z,100724.38
2022-09-16T04:53:29.789Z,100727.06
2022-09-16T04:55:31.453Z,100717.41
2022-09-16T04:57:33.238Z,100720.97
2022-09-16T04:59:34.670Z,100721.88
2022-09-16T05:01:38.382Z,100713.19
2022-09-16T05:03:44.890Z,100715.00
2022-09-16T05:05:46.341Z,100711.59
2022-09-16T05:07:57.895Z,100712.50
2022-09-16T05:09:59.337Z,100719.63
2022-09-16T05:12:00.948Z,100722.34
2022-09-16T05:14:04.349Z,100718.78
2022-09-16T05:16:09.072Z,100722.41
2022-09-16T05:18:10.567Z,100718.94
2022-09-16T05:20:14.131Z,100717.22
2022-09-16T05:22:15.588Z,100712.78
2022-09-16T05:24:17.255Z,100714.56
2022-09-16T05:26:24.673Z,100710.19
2022-09-16T05:28:26.093Z,100711.97
2022-09-16T05:30:27.599Z,100719.84
2022-09-16T05:32:29.038Z,100714.56
2022-09-16T05:34:30.537Z,100714.47
2022-09-16T05:36:35.546Z,100705.59
2022-09-16T05:38:37.208Z,100709.16
2022-09-16T05:40:38.917Z,100712.59
2022-09-16T05:42:40.385Z,100718.69
2022-09-16T05:44:41.793Z,100706.38
2022-09-16T05:46:43.856Z,100706.31
2022-09-16T05:48:45.923Z,100704.50
2022-09-16T05:51:02.707Z,100706.22
2022-09-16T05:53:04.560Z,100703.53
2022-09-16T05:55:06.635Z,100709.63
2022-09-16T05:57:08.107Z,100711.31
2022-09-16T05:59:11.637Z,100705.06
2022-09-16T06:01:17.181Z,100706.78
2022-09-16T06:03:19.070Z,100714.66
2022-09-16T06:05:20.500Z,100715.50
2022-09-16T06:07:21.971Z,100711.88
2022-09-16T06:09:24.932Z,100710.03
2022-09-16T06:11:27.883Z,100713.44
2022-09-16T06:13:29.371Z,100713.31
2022-09-16T06:15:31.595Z,100715.84
2022-09-16T06:17:33.066Z,100720.13
2022-09-16T06:19:34.496Z,100720.94
2022-09-16T06:21:37.751Z,100716.50
2022-09-16T06:23:40.154Z,100719.91
2022-09-16T06:25:41.620Z,100718.09
2022-09-16T06:27:43.070Z,100723.28
2022-09-16T06:29:44.506Z,100726.69
2022-09-16T06:31:46.016Z,100716.06
2022-09-16T06:33:50.224Z,100713.31
2022-09-16T06:35:53.431Z,100714.09
2022-09-16T06:37:54.962Z,100716.69
2022-09-16T06:39:56.431Z,100708.72
2022-09-16T06:41:57.919Z,100708.66
2022-09-16T06:44:00.147Z,100709.47
2022-09-16T06:46:13.476Z,100707.66
2022-09-16T06:48:15.074Z,100705.72
2022-09-16T06:50:16.540Z,100705.56
2022-09-16T06:52:19.193Z,100708.84
2022-09-16T06:54:20.654Z,100697.19
2022-09-16T06:56:22.530Z,100701.31
2022-09-16T06:58:24.015Z,100705.53
2022-09-16T07:00:25.608Z,100697.44
2022-09-16T07:02:27.185Z,100697.25
2022-09-16T07:04:28.731Z,100701.47
2022-09-16T07:06:58.290Z,100703.78
2022-09-16T07:08:54.128Z,100699.25
2022-09-16T07:11:00.626Z,100701.03
2022-09-16T07:13:02.116Z,100707.22
2022-09-16T07:15:03.783Z,100699.34
2022-09-16T07:17:05.644Z,100704.47
2022-09-16T07:19:07.208Z,100703.50
2022-09-16T07:21:14.142Z,100695.44
2022-09-16T07:23:15.610Z,100698.09
2022-09-16T07:25:17.292Z,100695.34
2022-09-16T07:27:18.751Z,100696.94
2022-09-16T07:29:20.860Z,100691.47
2022-09-16T07:31:25.961Z,100705.44
2022-09-16T07:33:27.558Z,100705.22
2022-09-16T07:35:29.054Z,100708.50
2022-09-16T07:37:30.486Z,100705.59
2022-09-16T07:39:31.931Z,100701.78
2022-09-16T07:41:36.406Z,100710.34
2022-09-16T07:43:40.325Z,100708.50
2022-09-16T07:45:41.795Z,100711.16
2022-09-16T07:47:43.659Z,100705.72
2022-09-16T07:49:45.344Z,100694.16
2022-09-16T07:51:47.082Z,100692.25
2022-09-16T07:53:52.954Z,100712.44
2022-09-16T07:55:54.632Z,100717.63
2022-09-16T07:57:56.611Z,100707.78
2022-09-16T07:59:58.050Z,100722.69
2022-09-16T08:01:59.569Z,100710.19
2022-09-16T08:04:01.661Z,100704.81
2022-09-16T08:06:06.186Z,100710.72
2022-09-16T08:08:07.832Z,100702.66
2022-09-16T08:10:09.569Z,100713.19
2022-09-16T08:12:11.238Z,100712.25
2022-09-16T08:14:12.718Z,100713.84
2022-09-16T08:16:17.360Z,100720.69
2022-09-16T08:18:18.875Z,100707.25
2022-09-16T08:20:20.589Z,100712.31
2022-09-16T08:22:23.539Z,100709.41
2022-09-16T08:24:25.168Z,100705.66
2022-09-16T08:26:26.916Z,100715.13
2022-09-16T08:28:39.877Z,100706.97
2022-09-16T08:30:53.393Z,100709.59
2022-09-16T08:32:59.368Z,100716.44
2022-09-16T08:35:01.478Z,100710.88
2022-09-16T08:37:02.937Z,100715.03
2022-09-16T08:39:04.606Z,100713.06
2022-09-16T08:41:19.877Z,100711.13
2022-09-16T08:43:55.799Z,100714.38
2022-09-16T08:46:10.148Z,100714.03
2022-09-16T08:48:28.502Z,100708.56
2022-09-16T08:50:34.396Z,100710.16
2022-09-16T08:52:38.952Z,100705.56
2022-09-16T08:54:51.890Z,100693.88
2022-09-16T08:57:01.392Z,100705.03
2022-09-16T08:59:10.320Z,100703.88
2022-09-16T09:01:41.348Z,100698.22
2022-09-16T09:03:45.964Z,100702.28
2022-09-16T09:05:53.615Z,100701.06
2022-09-16T09:08:13.653Z,100696.44
2022-09-16T09:10:49.395Z,100706.78
2022-09-16T09:13:28.461Z,100703.81
2022-09-16T09:15:50.437Z,100705.41
2022-09-16T09:18:17.282Z,100716.53
2022-09-16T09:20:45.554Z,100698.72
2022-09-16T09:22:55.956Z,100711.06
2022-09-16T09:25:06.565Z,100713.53
2022-09-16T09:27:15.873Z,100709.19
2022-09-16T09:29:24.839Z,100707.16
2022-09-16T09:31:44.686Z,100702.25
2022-09-16T09:34:03.871Z,100708.28
2022-09-16T09:36:35.752Z,100708.13
2022-09-16T09:38:49.459Z,100707.19
2022-09-16T09:40:58.788Z,100707.13
2022-09-16T09:43:10.934Z,100707.13
2022-09-16T09:45:33.332Z,100697.56
2022-09-16T09:48:06.123Z,100684.63
2022-09-16T09:50:29.770Z,100677.13
2022-09-16T09:52:40.064Z,100685.69
2022-09-16T09:54:47.144Z,100685.28
2022-09-16T09:56:53.321Z,100686.06
2022-09-16T09:59:03.731Z,100681.69
2022-09-16T10:01:05.491Z,100685.38
2022-09-16T10:03:18.505Z,100678.47
2022-09-16T10:05:26.344Z,100677.69
2022-09-16T10:07:28.714Z,100670.28
2022-09-16T10:09:30.550Z,100667.00
2022-09-16T10:11:32.640Z,100666.44
2022-09-16T10:13:34.210Z,100658.13
2022-09-16T10:15:36.132Z,100658.75
2022-09-16T10:17:37.800Z,100671.41
2022-09-16T10:19:52.090Z,100661.22
2022-09-16T10:21:56.655Z,100656.59
2022-09-16T10:23:58.449Z,100661.50
2022-09-16T10:26:21.269Z,100657.41
2022-09-16T10:28:25.242Z,100664.16
2022-09-16T10:30:33.245Z,100655.84
2022-09-16T10:32:46.022Z,100649.91
2022-09-16T10:34:48.280Z,100651.09
2022-09-16T10:36:59.931Z,100653.50
2022-09-16T10:39:05.459Z,100653.34
2022-09-16T10:41:16.942Z,100644.59
2022-09-16T10:43:18.665Z,100648.72
2022-09-16T10:45:36.504Z,100664.50
2022-09-16T10:47:38.947Z,100666.06
2022-09-16T10:49:47.731Z,100662.13
2022-09-16T10:51:49.413Z,100662.78
2022-09-16T10:53:54.211Z,100658.47
2022-09-16T10:56:01.762Z,100662.88
2022-09-16T10:58:09.069Z,100653.06
2022-09-16T11:00:21.735Z,100669.75
2022-09-16T11:02:36.395Z,100672.94
2022-09-16T11:04:43.557Z,100672.47
2022-09-16T11:06:50.976Z,100661.53
2022-09-16T11:08:58.166Z,100661.38
2022-09-16T11:11:11.802Z,100662.72
2022-09-16T11:13:27.807Z,100648.28
2022-09-16T11:15:31.900Z,100647.03
2022-09-16T11:17:44.327Z,100658.00
2022-09-16T11:20:06.021Z,100636.34
2022-09-16T11:22:31.822Z,100646.03
2022-09-16T11:24:39.397Z,100640.19
2022-09-16T11:27:03.074Z,100642.25
2022-09-16T11:29:10.520Z,100644.66
2022-09-16T11:31:31.330Z,100657.06
2022-09-16T11:33:54.129Z,100636.88
2022-09-16T11:36:10.730Z,100636.31
2022-09-16T11:38:42.465Z,100640.22
2022-09-16T11:40:47.443Z,100659.97
2022-09-16T11:43:21.281Z,100672.41
2022-09-16T11:45:28.520Z,100669.84
2022-09-16T11:47:40.717Z,100670.50
2022-09-16T11:50:11.723Z,100657.53
2022-09-16T11:52:42.543Z,100653.53
2022-09-16T11:55:20.419Z,100644.03
2022-09-16T11:57:29.130Z,100635.38
2022-09-16T11:59:39.728Z,100632.00
2022-09-16T12:01:58.191Z,100634.75
2022-09-16T12:04:07.771Z,100628.94
2022-09-16T12:06:14.621Z,100618.53
2022-09-16T12:08:54.959Z,100610.03
2022-09-16T12:11:19.574Z,100612.91
2022-09-16T12:13:26.758Z,100613.47
2022-09-16T12:15:48.472Z,100609.28
2022-09-16T12:17:57.529Z,100604.41
2022-09-16T12:20:05.239Z,100618.56
2022-09-16T12:22:11.881Z,100606.19
2022-09-16T12:24:23.670Z,100603.28
2022-09-16T12:26:36.370Z,100603.16
2022-09-16T12:28:59.756Z,100594.88
2022-09-16T12:31:23.896Z,100598.59
2022-09-16T12:33:38.471Z,100614.78
2022-09-16T12:35:45.546Z,100617.41
2022-09-16T12:37:52.338Z,100602.41
2022-09-16T12:39:54.001Z,100598.50
2022-09-16T12:42:26.225Z,100602.09
2022-09-16T12:44:59.942Z,100602.34
2022-09-16T12:47:16.680Z,100603.88
2022-09-16T12:49:55.445Z,100599.88
2022-09-16T12:52:12.197Z,100591.31
2022-09-16T12:55:04.122Z,100593.28
2022-09-16T12:57:18.591Z,100592.50
2022-09-16T12:59:46.980Z,100583.09
2022-09-16T13:01:51.100Z,100580.91
2022-09-16T13:03:58.141Z,100590.16
2022-09-16T13:06:22.018Z,100580.88
2022-09-16T13:08:30.589Z,100574.03
2022-09-16T13:10:54.413Z,100566.34
2022-09-16T13:13:00.388Z,100567.75
2022-09-16T13:15:05.096Z,100562.94
2022-09-16T13:17:06.532Z,100562.53
2022-09-16T13:19:21.187Z,100557.81
2022-09-16T13:21:39.267Z,100562.88
2022-09-16T13:23:45.038Z,100566.66
2022-09-16T13:25:59.808Z,100599.00
2022-09-16T13:28:04.038Z,100600.31
2022-09-16T13:30:08.273Z,100607.19
2022-09-16T13:32:38.455Z,100608.50
2022-09-16T13:34:39.995Z,100595.81
2022-09-16T13:36:41.590Z,100589.78
2022-09-16T13:38:46.906Z,100578.72
2022-09-16T13:41:02.272Z,100579.72
2022-09-16T13:43:09.610Z,100575.97
2022-09-16T13:45:34.408Z,100579.19
2022-09-16T13:47:40.258Z,100579.69
2022-09-16T13:49:45.012Z,100575.81
2022-09-16T13:51:48.987Z,100582.53
2022-09-16T13:53:52.108Z,100568.13
2022-09-16T13:56:20.208Z,100577.59
2022-09-16T13:59:04.897Z,100574.84
2022-09-16T14:01:27.899Z,100576.56
2022-09-16T14:03:38.229Z,100577.31
2022-09-16T14:05:58.757Z,100571.88
2022-09-16T14:08:28.371Z,100570.84
2022-09-16T14:10:48.406Z,100576.16
2022-09-16T14:13:07.432Z,100568.19
2022-09-16T14:15:10.413Z,100577.88
2022-09-16T14:17:38.858Z,100576.09
2022-09-16T14:19:42.416Z,100579.91
2022-09-16T14:21:44.005Z,100575.44
2022-09-16T14:23:45.525Z,100570.16
2022-09-16T14:25:47.027Z,100575.53
2022-09-16T14:27:48.526Z,100581.78
2022-09-16T14:29:57.279Z,100570.22
2022-09-16T14:31:59.070Z,100576.78
2022-09-16T14:34:07.511Z,100575.88
2022-09-16T14:36:23.879Z,100577.66
2022-09-16T14:38:57.907Z,100575.22
2022-09-16T14:40:59.471Z,100575.28
2022-09-16T14:43:07.282Z,100577.09
2022-09-16T14:45:16.925Z,100578.16
2022-09-16T14:47:32.395Z,100582.69
2022-09-16T14:49:47.282Z,100580.31
2022-09-16T14:51:53.967Z,100581.47
2022-09-16T14:54:13.889Z,100586.13
2022-09-16T14:56:22.090Z,100576.66
2022-09-16T14:58:27.837Z,100587.66
2022-09-16T15:00:46.866Z,100575.03
2022-09-16T15:03:10.857Z,100576.59
2022-09-16T15:05:32.374Z,100588.28
2022-09-16T15:07:46.255Z,100589.44
2022-09-16T15:10:05.917Z,100592.63
2022-09-16T15:12:19.804Z,100590.44
2022-09-16T15:14:22.105Z,100594.50
2022-09-16T15:16:24.571Z,100590.56
2022-09-16T15:18:29.726Z,100592.81
2022-09-16T15:20:41.255Z,100589.75
2022-09-16T15:22:42.954Z,100591.91
2022-09-16T15:24:47.794Z,100587.59
2022-09-16T15:26:49.717Z,100586.94
2022-09-16T15:29:05.411Z,100587.13
2022-09-16T15:31:07.976Z,100581.28
2022-09-16T15:33:34.353Z,100590.41
2022-09-16T15:35:36.121Z,100589.72
2022-09-16T15:37:37.595Z,100588.00
2022-09-16T15:39:39.611Z,100583.81
2022-09-16T15:41:41.366Z,100580.53
2022-09-16T15:43:44.542Z,100579.81
2022-09-16T15:45:58.572Z,100576.56
2022-09-16T15:48:04.944Z,100587.19
2022-09-16T15:50:09.855Z,100583.75
2022-09-16T15:52:13.045Z,100587.31
2022-09-16T15:54:14.436Z,100585.66
2022-09-16T15:56:44.875Z,100588.41
2022-09-16T15:58:54.237Z,100585.94
2022-09-16T16:01:10.761Z,100572.78
2022-09-16T16:03:20.632Z,100579.78
2022-09-16T16:05:23.619Z,100579.84
2022-09-16T16:07:47.643Z,100576.41
2022-09-16T16:09:50.075Z,100574.63
2022-09-16T16:11:52.649Z,100564.84
2022-09-16T16:13:56.523Z,100565.75
2022-09-16T16:16:00.176Z,100564.91
2022-09-16T16:18:06.193Z,100564.03
2022-09-16T16:20:08.647Z,100559.72
2022-09-16T16:22:11.684Z,100557.03
2022-09-16T16:24:14.244Z,100550.88
2022-09-16T16:26:15.734Z,100551.78
2022-09-16T16:28:17.181Z,100549.13
2022-09-16T16:30:19.664Z,100549.13
2022-09-16T16:32:21.108Z,100556.16
2022-09-16T16:34:22.624Z,100557.94
2022-09-16T16:36:24.328Z,100558.81
2022-09-16T16:38:25.788Z,100555.34
2022-09-16T16:40:27.348Z,100565.00
2022-09-16T16:42:29.422Z,100555.22
2022-09-16T16:44:30.893Z,100532.34
2022-09-16T16:46:32.405Z,100538.56
2022-09-16T16:48:34.224Z,100529.81
2022-09-16T16:50:35.694Z,100520.16
2022-09-16T16:52:37.624Z,100532.59
2022-09-16T16:54:39.133Z,100529.94
2022-09-16T16:56:40.817Z,100529.16
2022-09-16T16:58:45.639Z,100530.16
2022-09-16T17:00:48.519Z,100542.50
2022-09-16T17:02:49.988Z,100543.38
2022-09-16T17:04:51.524Z,100547.00
2022-09-16T17:07:08.497Z,100549.72
2022-09-16T17:09:17.048Z,100548.03
2022-09-16T17:11:19.993Z,100556.03
2022-09-16T17:13:21.406Z,100549.88
2022-09-16T17:15:22.848Z,100559.66
2022-09-16T17:17:28.938Z,100578.28
2022-09-16T17:19:32.720Z,100581.91
2022-09-16T17:21:36.122Z,100580.16
2022-09-16T17:23:38.366Z,100572.34
2022-09-16T17:25:39.796Z,100589.13
2022-09-16T17:27:41.232Z,100606.88
2022-09-16T17:29:42.666Z,100604.28
2022-09-16T17:31:44.996Z,100596.41
2022-09-16T17:33:47.792Z,100607.09
2022-09-16T17:36:03.468Z,100601.00
2022-09-16T17:38:07.042Z,100592.97
2022-09-16T17:40:08.979Z,100596.41
2022-09-16T17:42:10.441Z,100588.44
2022-09-16T17:44:13.519Z,100594.59
2022-09-16T17:46:18.704Z,100586.66
2022-09-16T17:48:21.241Z,100592.81
2022-09-16T17:50:23.207Z,100594.53
2022-09-16T17:52:25.291Z,100599.88
2022-09-16T17:54:26.779Z,100603.38
2022-09-16T17:56:28.220Z,100600.78
2022-09-16T17:58:30.155Z,100611.41
2022-09-16T18:00:31.591Z,100607.91
2022-09-16T18:02:36.185Z,100604.34
2022-09-16T18:04:37.771Z,100607.84
2022-09-16T18:06:41.979Z,100596.41
2022-09-16T18:08:44.392Z,100591.13
2022-09-16T18:10:52.632Z,100600.84
2022-09-16T18:12:54.153Z,100602.56
2022-09-16T18:14:55.602Z,100601.72
2022-09-16T18:16:57.101Z,100605.16
2022-09-16T18:19:00.524Z,100599.88
2022-09-16T18:21:02.878Z,100611.25
2022-09-16T18:23:04.338Z,100595.41
2022-09-16T18:25:06.125Z,100590.91
2022-09-16T18:27:07.543Z,100590.84
2022-09-16T18:29:12.069Z,100595.22
2022-09-16T18:31:19.361Z,100595.22
2022-09-16T18:33:20.822Z,100589.06
2022-09-16T18:35:22.286Z,100593.38
2022-09-16T18:37:24.101Z,100585.50
2022-09-16T18:39:25.609Z,100585.47
2022-09-16T18:41:30.064Z,100588.97
2022-09-16T18:43:31.547Z,100589.84
2022-09-16T18:45:33.588Z,100595.13
2022-09-16T18:47:35.012Z,100594.25
2022-09-16T18:49:36.457Z,100595.13
2022-09-16T18:51:40.631Z,100586.25
2022-09-16T18:53:42.648Z,100590.69
2022-09-16T18:55:44.081Z,100600.41
2022-09-16T18:57:45.542Z,100591.59
2022-09-16T18:59:47.071Z,100595.13
2022-09-16T19:01:48.964Z,100598.69
2022-09-16T19:03:52.153Z,100601.28
2022-09-16T19:05:56.908Z,100594.25
2022-09-16T19:07:58.352Z,100596.84
2022-09-16T19:09:59.789Z,100597.69
2022-09-16T19:12:02.449Z,100603.00
2022-09-16T19:14:05.825Z,100606.44
2022-09-16T19:16:07.600Z,100606.44
2022-09-16T19:18:09.046Z,100610.81
2022-09-16T19:20:10.495Z,100616.09
2022-09-16T19:22:11.927Z,100621.38
2022-09-16T19:24:18.869Z,100624.91
2022-09-16T19:26:20.353Z,100622.25
2022-09-16T19:28:21.765Z,100632.81
2022-09-16T19:30:23.280Z,100629.22
2022-09-16T19:32:24.765Z,100623.91
2022-09-16T19:34:26.361Z,100623.88
2022-09-16T19:36:32.969Z,100625.59
2022-09-16T19:38:35.329Z,100616.78
2022-09-16T19:40:36.873Z,100614.09
2022-09-16T19:42:38.417Z,100619.31
2022-09-16T19:44:39.849Z,100631.56
2022-09-16T19:46:42.892Z,100628.00
2022-09-16T19:48:46.765Z,100636.78
2022-09-16T19:50:52.460Z,100641.22
2022-09-16T19:52:53.929Z,100642.03
2022-09-16T19:54:55.530Z,100638.50
2022-09-16T19:56:57.059Z,100641.09
2022-09-16T19:58:58.904Z,100639.38
2022-09-16T20:01:07.128Z,100655.25
2022-09-16T20:03:09.034Z,100653.47
2022-09-16T20:05:11.260Z,100653.47
2022-09-16T20:07:16.920Z,100651.69
2022-09-16T20:09:19.672Z,100638.47
2022-09-16T20:11:24.209Z,100652.59
2022-09-16T20:13:25.691Z,100655.25
2022-09-16T20:15:27.118Z,100656.97
2022-09-16T20:17:28.600Z,100659.56
2022-09-16T20:19:30.029Z,100659.63
2022-09-16T20:21:34.971Z,100663.13
2022-09-16T20:23:37.817Z,100664.91
2022-09-16T20:25:39.275Z,100666.69
2022-09-16T20:27:40.718Z,100670.31
2022-09-16T20:29:42.178Z,100665.00
2022-09-16T20:31:44.984Z,100669.44
2022-09-16T20:33:47.173Z,100673.88
2022-09-16T20:35:48.643Z,100679.19
2022-09-16T20:37:50.096Z,100678.31
2022-09-16T20:39:51.760Z,100685.31
2022-09-16T20:41:53.309Z,100683.59
2022-09-16T20:43:54.849Z,100683.59
2022-09-16T20:45:56.383Z,100687.09
2022-09-16T20:47:57.843Z,100683.59
2022-09-16T20:49:59.613Z,100678.31
2022-09-16T20:52:01.178Z,100678.31
2022-09-16T20:54:09.099Z,100680.91
2022-09-16T20:56:15.630Z,100689.72
2022-09-16T20:58:17.066Z,100694.09
2022-09-16T21:00:18.572Z,100694.06
2022-09-16T21:02:20.106Z,100689.63
2022-09-16T21:04:21.650Z,100690.50
2022-09-16T21:06:24.458Z,100700.97
2022-09-16T21:08:25.896Z,100696.59
2022-09-16T21:10:27.324Z,100701.84
2022-09-16T21:12:31.842Z,100699.22
2022-09-16T21:14:33.269Z,100709.72
2022-09-16T21:16:37.545Z,100710.53
2022-09-16T21:18:39.937Z,100710.53
2022-09-16T21:20:41.368Z,100712.28
2022-09-16T21:22:44.540Z,100719.28
2022-09-16T21:24:46.065Z,100719.28
2022-09-16T21:26:47.535Z,100721.00
2022-09-16T21:29:10.881Z,100725.44
2022-09-16T21:31:14.653Z,100720.09
2022-09-16T21:33:17.782Z,100717.44
2022-09-16T21:35:19.234Z,100721.81
2022-09-16T21:37:20.700Z,100726.19
2022-09-16T21:39:22.195Z,100727.97
2022-09-16T21:41:24.921Z,100716.47
2022-09-16T21:43:29.854Z,100720.00
2022-09-16T21:45:31.270Z,100726.13
2022-09-16T21:47:32.704Z,100720.00
2022-09-16T21:49:34.132Z,100715.63
2022-09-16T21:51:37.675Z,100718.22
2022-09-16T21:53:43.144Z,100720.00
2022-09-16T21:55:44.731Z,100731.50
2022-09-16T21:57:46.804Z,100734.06
2022-09-16T21:59:48.252Z,100735.00
2022-09-16T22:01:51.059Z,100737.63
2022-09-16T22:04:01.216Z,100745.63
2022-09-16T22:06:03.925Z,100739.47
2022-09-16T22:08:05.344Z,100744.75
2022-09-16T22:10:07.337Z,100757.94
2022-09-16T22:12:08.785Z,100758.69
2022-09-16T22:14:11.202Z,100744.44
2022-09-16T22:16:18.407Z,100745.25
2022-09-16T22:18:20.063Z,100746.97
2022-09-16T22:20:23.669Z,100757.50
2022-09-16T22:22:25.113Z,100753.19
2022-09-16T22:24:26.567Z,100762.91
2022-09-16T22:26:29.327Z,100759.41
2022-09-16T22:28:31.513Z,100756.81
2022-09-16T22:30:34.343Z,100757.72
2022-09-16T22:32:40.281Z,100754.31
2022-09-16T22:34:42.554Z,100749.94
2022-09-16T22:36:44.063Z,100750.91
2022-09-16T22:38:50.452Z,100750.97
2022-09-16T22:40:51.879Z,100751.09
2022-09-16T22:42:53.672Z,100746.72
2022-09-16T22:44:55.155Z,100754.69
2022-09-16T22:46:56.691Z,100751.19
2022-09-16T22:48:59.487Z,100758.28
2022-09-16T22:51:02.535Z,100761.84
2022-09-16T22:53:03.999Z,100759.25
2022-09-16T22:55:08.026Z,100762.81
2022-09-16T22:57:09.439Z,100762.88
2022-09-16T22:59:17.965Z,100767.28
2022-09-16T23:01:22.353Z,100769.09
2022-09-16T23:03:23.803Z,100773.63
2022-09-16T23:05:25.233Z,100770.06
2022-09-16T23:07:26.681Z,100778.09
2022-09-16T23:09:28.188Z,100776.41
2022-09-16T23:11:32.441Z,100777.34
2022-09-16T23:13:35.562Z,100776.53
2022-09-16T23:15:37.616Z,100779.22
2022-09-16T23:17:41.070Z,100779.28
2022-09-16T23:19:42.499Z,100785.47
2022-09-16T23:21:43.995Z,100776.63
2022-09-16T23:23:48.185Z,100779.22
2022-09-16T23:25:49.622Z,100775.75
2022-09-16T23:27:51.874Z,100780.19
2022-09-16T23:29:53.382Z,100782.88
2022-09-16T23:31:54.923Z,100781.09
2022-09-16T23:33:56.959Z,100770.69
2022-09-16T23:35:58.541Z,100783.94
2022-09-16T23:38:00.012Z,100777.84
2022-09-16T23:40:02.062Z,100781.34
2022-09-16T23:42:03.749Z,100783.13
2022-09-16T23:44:05.801Z,100782.22
2022-09-16T23:46:08.448Z,100779.63
2022-09-16T23:48:09.907Z,100784.06
2022-09-16T23:50:11.668Z,100787.59
2022-09-16T23:52:13.564Z,100783.28
2022-09-16T23:54:15.634Z,100784.19
2022-09-16T23:56:18.902Z,100780.69
2022-09-16T23:58:20.494Z,100778.91
